createdAt,value
2023-02-02T00:02:04.203Z,99788.56
2023-02-02T00:04:36.217Z,99794.91
2023-02-02T00:07:05.730Z,99788.31
2023-02-02T00:09:33.347Z,99789.63
2023-02-02T00:12:01.460Z,99789.41
2023-02-02T00:14:28.653Z,99778.34
2023-02-02T00:16:57.080Z,99776.44
2023-02-02T00:19:26.919Z,99776.00
2023-02-02T00:21:55.054Z,99771.34
2023-02-02T00:24:22.610Z,99769.25
2023-02-02T00:26:54.458Z,99754.97
2023-02-02T00:29:23.584Z,99760.47
2023-02-02T00:31:50.992Z,99762.53
2023-02-02T00:34:18.252Z,99762.09
2023-02-02T00:36:46.075Z,99763.38
2023-02-02T00:39:26.218Z,99754.19
2023-02-02T00:41:53.057Z,99736.34
2023-02-02T00:44:38.393Z,99736.28
2023-02-02T00:47:05.057Z,99739.00
2023-02-02T00:49:31.922Z,99747.19
2023-02-02T00:52:00.506Z,99746.84
2023-02-02T00:54:27.796Z,99725.38
2023-02-02T00:56:54.797Z,99749.00
2023-02-02T00:59:21.475Z,99730.06
2023-02-02T01:01:48.236Z,99669.75
2023-02-02T01:04:15.023Z,99728.13
2023-02-02T01:06:42.268Z,99741.13
2023-02-02T01:09:09.050Z,99736.47
2023-02-02T01:11:35.689Z,99733.16
2023-02-02T01:14:02.422Z,99747.84
2023-02-02T01:16:29.611Z,99757.22
2023-02-02T01:18:56.363Z,99746.19
2023-02-02T01:21:23.196Z,99746.78
2023-02-02T01:23:49.896Z,99750.00
2023-02-02T01:26:17.398Z,99758.69
2023-02-02T01:28:44.692Z,99755.69
2023-02-02T01:31:20.762Z,99777.25
2023-02-02T01:33:49.425Z,99782.34
2023-02-02T01:36:20.130Z,99791.09
2023-02-02T01:38:48.169Z,99775.97
2023-02-02T01:41:17.691Z,99782.97
2023-02-02T01:43:44.244Z,99782.25
2023-02-02T01:46:18.345Z,99779.03
2023-02-02T01:48:57.060Z,99784.38
2023-02-02T01:51:27.741Z,99777.25
2023-02-02T01:53:57.825Z,99802.19
2023-02-02T01:56:34.393Z,99797.91
2023-02-02T01:59:02.549Z,99796.06
2023-02-02T02:01:29.434Z,99783.16
2023-02-02T02:03:56.788Z,99800.06
2023-02-02T02:06:25.960Z,99802.00
2023-02-02T02:09:04.809Z,99794.72
2023-02-02T02:11:33.347Z,99789.63
2023-02-02T02:14:21.266Z,99795.41
2023-02-02T02:16:56.684Z,99789.88
2023-02-02T02:20:06.869Z,99796.84
2023-02-02T02:23:10.090Z,99781.09
2023-02-02T02:26:22.867Z,99780.31
2023-02-02T02:29:17.716Z,99760.47
2023-02-02T02:31:56.520Z,99750.00
2023-02-02T02:34:31.286Z,99747.22
2023-02-02T02:37:22.101Z,99750.56
2023-02-02T02:40:06.929Z,99743.91
2023-02-02T02:42:38.828Z,99732.53
2023-02-02T02:45:07.799Z,99736.72
2023-02-02T02:47:35.653Z,99735.44
2023-02-02T02:50:02.447Z,99716.28
2023-02-02T02:52:29.397Z,99723.38
2023-02-02T02:54:58.443Z,99719.56
2023-02-02T02:57:46.927Z,99720.91
2023-02-02T03:00:34.873Z,99707.81
2023-02-02T03:03:20.345Z,99697.63
2023-02-02T03:06:01.612Z,99696.63
2023-02-02T03:08:42.824Z,99687.81
2023-02-02T03:11:12.983Z,99693.34
2023-02-02T03:13:41.299Z,99683.75
2023-02-02T03:16:08.897Z,99690.25
2023-02-02T03:18:35.900Z,99693.44
2023-02-02T03:21:02.573Z,99692.22
2023-02-02T03:23:29.300Z,99696.72
2023-02-02T03:25:56.116Z,99678.59
2023-02-02T03:28:24.427Z,99688.47
2023-02-02T03:30:53.555Z,99627.53
2023-02-02T03:33:20.897Z,99676.28
2023-02-02T03:35:47.767Z,99692.81
2023-02-02T03:38:14.636Z,99677.75
2023-02-02T03:40:41.255Z,99684.06
2023-02-02T03:43:08.042Z,99686.66
2023-02-02T03:45:39.257Z,99685.41
2023-02-02T03:48:06.544Z,99667.81
2023-02-02T03:50:33.976Z,99678.06
2023-02-02T03:53:02.190Z,99675.09
2023-02-02T03:55:28.979Z,99671.22
2023-02-02T03:57:55.645Z,99670.38
2023-02-02T04:00:22.850Z,99677.19
2023-02-02T04:02:49.516Z,99681.19
2023-02-02T04:05:16.238Z,99660.84
2023-02-02T04:07:42.956Z,99675.59
2023-02-02T04:10:10.343Z,99695.16
2023-02-02T04:12:36.955Z,99689.69
2023-02-02T04:15:04.011Z,99686.72
2023-02-02T04:17:30.633Z,99698.16
2023-02-02T04:19:58.563Z,99700.94
2023-02-02T04:22:26.317Z,99704.22
2023-02-02T04:24:53.348Z,99689.16
2023-02-02T04:27:20.759Z,99689.69
2023-02-02T04:29:47.872Z,99690.44
2023-02-02T04:32:16.283Z,99704.09
2023-02-02T04:34:43.656Z,99704.25
2023-02-02T04:37:11.550Z,99703.06
2023-02-02T04:39:38.609Z,99706.13
2023-02-02T04:42:05.500Z,99718.75
2023-02-02T04:44:32.246Z,99727.78
2023-02-02T04:46:59.143Z,99717.97
2023-02-02T04:49:26.287Z,99723.06
2023-02-02T04:51:52.941Z,99720.91
2023-02-02T04:54:19.729Z,99729.09
2023-02-02T04:56:46.476Z,99727.66
2023-02-02T04:59:13.149Z,99719.72
2023-02-02T05:01:39.837Z,99725.78
2023-02-02T05:04:06.706Z,99723.84
2023-02-02T05:06:33.589Z,99713.66
2023-02-02T05:09:01.265Z,99730.53
2023-02-02T05:11:28.076Z,99741.00
2023-02-02T05:13:55.348Z,99742.59
2023-02-02T05:16:23.484Z,99728.31
2023-02-02T05:18:52.083Z,99733.13
2023-02-02T05:21:19.425Z,99742.41
2023-02-02T05:23:46.602Z,99739.34
2023-02-02T05:26:18.706Z,99741.94
2023-02-02T05:28:45.781Z,99738.44
2023-02-02T05:31:12.843Z,99745.59
2023-02-02T05:33:39.690Z,99743.63
2023-02-02T05:36:07.515Z,99731.03
2023-02-02T05:38:34.547Z,99749.50
2023-02-02T05:41:01.658Z,99750.31
2023-02-02T05:43:30.603Z,99741.78
2023-02-02T05:45:57.504Z,99749.06
2023-02-02T05:48:24.262Z,99750.38
2023-02-02T05:51:04.287Z,99762.50
2023-02-02T05:53:31.633Z,99754.13
2023-02-02T05:55:58.807Z,99774.41
2023-02-02T05:58:26.024Z,99772.16
2023-02-02T06:00:54.964Z,99771.91
2023-02-02T06:03:23.136Z,99784.22
2023-02-02T06:05:49.974Z,99784.91
2023-02-02T06:08:16.696Z,99769.66
2023-02-02T06:10:43.681Z,99779.69
2023-02-02T06:13:10.624Z,99759.97
2023-02-02T06:15:37.560Z,99757.72
2023-02-02T06:18:06.825Z,99784.38
2023-02-02T06:20:33.591Z,99782.34
2023-02-02T06:23:00.289Z,99787.59
2023-02-02T06:25:27.708Z,99786.16
2023-02-02T06:27:58.865Z,99788.00
2023-02-02T06:30:26.113Z,99799.00
2023-02-02T06:32:52.791Z,99800.44
2023-02-02T06:35:19.725Z,99787.31
2023-02-02T06:37:46.520Z,99798.03
2023-02-02T06:40:13.858Z,99791.75
2023-02-02T06:42:41.093Z,99761.53
2023-02-02T06:45:08.388Z,99786.97
2023-02-02T06:47:35.059Z,99786.00
2023-02-02T06:50:01.785Z,99792.69
2023-02-02T06:52:28.518Z,99785.91
2023-02-02T06:54:55.264Z,99775.09
2023-02-02T06:57:22.078Z,99780.50
2023-02-02T06:59:48.775Z,99793.69
2023-02-02T07:02:15.654Z,99795.22
2023-02-02T07:04:42.546Z,99794.34
2023-02-02T07:07:09.214Z,99799.34
2023-02-02T07:09:36.414Z,99801.78
2023-02-02T07:12:03.190Z,99796.38
2023-02-02T07:14:29.860Z,99795.91
2023-02-02T07:16:56.556Z,99807.41
2023-02-02T07:19:23.219Z,99798.03
2023-02-02T07:21:49.939Z,99797.84
2023-02-02T07:24:16.688Z,99797.22
2023-02-02T07:26:43.569Z,99793.72
2023-02-02T07:29:14.103Z,99786.69
2023-02-02T07:31:41.276Z,99786.66
2023-02-02T07:34:08.062Z,99791.75
2023-02-02T07:36:35.258Z,99806.69
2023-02-02T07:39:04.908Z,99794.16
2023-02-02T07:41:33.482Z,99804.50
2023-02-02T07:44:00.197Z,99799.59
2023-02-02T07:46:26.935Z,99800.22
2023-02-02T07:48:57.746Z,99786.72
2023-02-02T07:51:25.731Z,99789.91
2023-02-02T07:53:54.492Z,99784.56
2023-02-02T07:56:24.306Z,99786.94
2023-02-02T07:58:56.005Z,99775.22
2023-02-02T08:01:26.313Z,99772.16
2023-02-02T08:03:54.703Z,99771.44
2023-02-02T08:06:38.534Z,99792.09
2023-02-02T08:09:10.195Z,99788.09
2023-02-02T08:11:38.236Z,99794.06
2023-02-02T08:14:05.805Z,99795.72
2023-02-02T08:16:33.846Z,99802.25
2023-02-02T08:19:01.024Z,99808.09
2023-02-02T08:21:27.829Z,99790.41
2023-02-02T08:23:54.620Z,99794.00
2023-02-02T08:26:25.219Z,99784.22
2023-02-02T08:28:54.993Z,99795.25
2023-02-02T08:31:24.757Z,99795.06
2023-02-02T08:33:51.672Z,99802.34
2023-02-02T08:36:20.579Z,99815.47
2023-02-02T08:38:47.550Z,99813.25
2023-02-02T08:41:16.604Z,99817.59
2023-02-02T08:43:43.996Z,99803.66
2023-02-02T08:46:14.156Z,99817.16
2023-02-02T08:48:41.262Z,99806.13
2023-02-02T08:51:10.347Z,99813.19
2023-02-02T08:53:37.068Z,99807.84
2023-02-02T08:56:19.881Z,99795.31
2023-02-02T08:58:52.025Z,99803.97
2023-02-02T09:01:21.434Z,99798.22
2023-02-02T09:03:48.531Z,99799.81
2023-02-02T09:06:19.915Z,99787.59
2023-02-02T09:08:47.352Z,99789.75
2023-02-02T09:11:17.246Z,99783.53
2023-02-02T09:13:46.223Z,99774.09
2023-02-02T09:16:14.525Z,99779.22
2023-02-02T09:18:42.455Z,99776.69
2023-02-02T09:21:12.234Z,99771.22
2023-02-02T09:23:41.174Z,99766.09
2023-02-02T09:26:24.446Z,99763.03
2023-02-02T09:29:01.829Z,99775.03
2023-02-02T09:31:30.081Z,99773.81
2023-02-02T09:34:01.218Z,99768.22
2023-02-02T09:36:27.963Z,99762.75
2023-02-02T09:38:54.704Z,99766.53
2023-02-02T09:41:42.239Z,99760.00
2023-02-02T09:44:42.793Z,99754.25
2023-02-02T09:47:24.351Z,99754.31
2023-02-02T09:49:54.100Z,99738.50
2023-02-02T09:52:44.290Z,99741.72
2023-02-02T09:55:25.294Z,99734.28
2023-02-02T09:57:59.146Z,99731.03
2023-02-02T10:00:33.906Z,99732.38
2023-02-02T10:03:12.581Z,99729.41
2023-02-02T10:06:10.147Z,99712.63
2023-02-02T10:08:53.163Z,99710.09
2023-02-02T10:11:19.778Z,99698.59
2023-02-02T10:13:48.947Z,99683.41
2023-02-02T10:16:19.957Z,99695.59
2023-02-02T10:18:58.763Z,99682.91
2023-02-02T10:21:56.139Z,99687.66
2023-02-02T10:24:27.986Z,99673.56
2023-02-02T10:26:58.153Z,99687.19
2023-02-02T10:29:24.870Z,99681.22
2023-02-02T10:32:14.025Z,99676.81
2023-02-02T10:34:43.598Z,99677.81
2023-02-02T10:37:30.266Z,99684.41
2023-02-02T10:40:17.944Z,99669.03
2023-02-02T10:43:15.230Z,99667.91
2023-02-02T10:45:44.024Z,99672.00
2023-02-02T10:48:16.921Z,99653.47
2023-02-02T10:50:49.586Z,99648.09
2023-02-02T10:53:17.120Z,99662.31
2023-02-02T10:55:53.788Z,99658.13
2023-02-02T10:58:39.715Z,99633.41
2023-02-02T11:01:11.581Z,99657.16
2023-02-02T11:03:40.142Z,99653.06
2023-02-02T11:06:26.977Z,99646.59
2023-02-02T11:08:59.660Z,99647.75
2023-02-02T11:11:38.399Z,99638.19
2023-02-02T11:14:08.192Z,99632.41
2023-02-02T11:16:43.324Z,99638.03
2023-02-02T11:19:30.428Z,99635.38
2023-02-02T11:21:59.770Z,99617.88
2023-02-02T11:24:46.469Z,99627.81
2023-02-02T11:27:19.556Z,99636.25
2023-02-02T11:29:49.848Z,99611.22
2023-02-02T11:32:30.215Z,99613.72
2023-02-02T11:35:02.844Z,99605.84
2023-02-02T11:37:31.212Z,99593.78
2023-02-02T11:40:20.977Z,99595.97
2023-02-02T11:42:48.637Z,99599.00
2023-02-02T11:45:25.424Z,99605.28
2023-02-02T11:47:52.141Z,99603.41
2023-02-02T11:50:27.923Z,99593.50
2023-02-02T11:52:55.258Z,99601.53
2023-02-02T11:55:28.228Z,99596.53
2023-02-02T11:58:27.337Z,99589.88
2023-02-02T12:00:58.221Z,99584.28
2023-02-02T12:03:37.696Z,99576.34
2023-02-02T12:06:22.717Z,99567.41
2023-02-02T12:08:50.254Z,99565.31
2023-02-02T12:11:33.178Z,99564.13
2023-02-02T12:14:20.792Z,99548.56
2023-02-02T12:17:11.766Z,99548.56
2023-02-02T12:20:20.125Z,99540.31
2023-02-02T12:23:05.492Z,99548.34
2023-02-02T12:25:53.766Z,99523.03
2023-02-02T12:28:20.529Z,99537.28
2023-02-02T12:31:04.371Z,99545.16
2023-02-02T12:34:05.226Z,99536.06
2023-02-02T12:36:50.348Z,99540.81
2023-02-02T12:39:34.650Z,99534.50
2023-02-02T12:42:19.794Z,99536.75
2023-02-02T12:45:06.183Z,99534.44
2023-02-02T12:47:35.603Z,99526.44
2023-02-02T12:50:39.107Z,99538.28
2023-02-02T12:53:28.084Z,99534.06
2023-02-02T12:55:57.827Z,99540.81
2023-02-02T12:58:33.057Z,99540.00
2023-02-02T13:01:30.630Z,99540.28
2023-02-02T13:04:00.378Z,99534.38
2023-02-02T13:06:30.084Z,99531.81
2023-02-02T13:09:41.352Z,99533.25
2023-02-02T13:12:11.930Z,99527.94
2023-02-02T13:14:45.642Z,99528.47
2023-02-02T13:17:19.523Z,99525.16
2023-02-02T13:19:53.631Z,99522.28
2023-02-02T13:22:27.039Z,99525.75
2023-02-02T13:25:00.163Z,99526.19
2023-02-02T13:27:30.665Z,99531.75
2023-02-02T13:30:14.232Z,99524.72
2023-02-02T13:32:45.727Z,99531.97
2023-02-02T13:35:30.037Z,99534.41
2023-02-02T13:38:30.418Z,99524.41
2023-02-02T13:41:03.995Z,99526.63
2023-02-02T13:43:46.027Z,99527.75
2023-02-02T13:46:13.043Z,99525.34
2023-02-02T13:49:05.421Z,99520.81
2023-02-02T13:51:55.869Z,99518.09
2023-02-02T13:55:00.431Z,99518.34
2023-02-02T13:57:27.075Z,99520.81
2023-02-02T13:59:53.959Z,99514.28
2023-02-02T14:02:40.217Z,99507.72
2023-02-02T14:05:08.736Z,99518.16
2023-02-02T14:07:44.104Z,99510.78
2023-02-02T14:10:27.801Z,99503.69
2023-02-02T14:12:56.327Z,99494.94
2023-02-02T14:15:44.461Z,99509.47
2023-02-02T14:18:11.221Z,99504.31
2023-02-02T14:20:47.815Z,99506.81
2023-02-02T14:23:52.146Z,99505.41
2023-02-02T14:26:39.897Z,99510.78
2023-02-02T14:29:31.655Z,99512.59
2023-02-02T14:31:58.445Z,99523.47
2023-02-02T14:34:33.771Z,99527.38
2023-02-02T14:37:15.790Z,99537.25
2023-02-02T14:40:12.738Z,99546.97
2023-02-02T14:43:16.936Z,99550.41
2023-02-02T14:45:45.712Z,99546.47
2023-02-02T14:48:20.690Z,99558.16
2023-02-02T14:50:52.071Z,99550.88
2023-02-02T14:53:35.632Z,99555.75
2023-02-02T14:56:10.456Z,99561.63
2023-02-02T14:58:41.705Z,99561.00
2023-02-02T15:01:17.524Z,99557.47
2023-02-02T15:03:45.943Z,99562.16
2023-02-02T15:06:34.411Z,99574.31
2023-02-02T15:09:19.822Z,99585.78
2023-02-02T15:12:04.623Z,99594.59
2023-02-02T15:15:08.786Z,99602.00
2023-02-02T15:17:41.517Z,99608.00
2023-02-02T15:20:23.107Z,99618.69
2023-02-02T15:22:55.995Z,99629.06
2023-02-02T15:25:32.242Z,99628.88
2023-02-02T15:28:09.159Z,99661.00
2023-02-02T15:30:38.076Z,99657.72
2023-02-02T15:33:21.245Z,99645.25
2023-02-02T15:35:49.074Z,99675.16
2023-02-02T15:38:20.453Z,99682.50
2023-02-02T15:40:47.567Z,99702.66
2023-02-02T15:43:15.621Z,99706.56
2023-02-02T15:45:54.254Z,99736.38
2023-02-02T15:48:29.916Z,99738.09
2023-02-02T15:51:00.260Z,99739.53
2023-02-02T15:53:32.158Z,99724.06
2023-02-02T15:55:59.318Z,99720.31
2023-02-02T15:58:33.295Z,99745.41
2023-02-02T16:01:06.335Z,99742.13
2023-02-02T16:03:55.524Z,99741.09
2023-02-02T16:06:22.440Z,99742.00
2023-02-02T16:08:49.511Z,99752.53
2023-02-02T16:11:18.041Z,99753.78
2023-02-02T16:13:56.028Z,99766.47
2023-02-02T16:16:29.121Z,99750.84
2023-02-02T16:19:08.378Z,99776.84
2023-02-02T16:21:42.457Z,99738.13
2023-02-02T16:24:20.835Z,99743.50
2023-02-02T16:26:48.156Z,99747.63
2023-02-02T16:29:19.256Z,99749.66
2023-02-02T16:31:47.891Z,99738.66
2023-02-02T16:34:40.944Z,99729.16
2023-02-02T16:37:32.540Z,99728.09
2023-02-02T16:40:31.243Z,99716.78
2023-02-02T16:43:21.492Z,99713.47
2023-02-02T16:45:54.826Z,99703.59
2023-02-02T16:48:46.326Z,99713.63
2023-02-02T16:51:16.005Z,99717.22
2023-02-02T16:53:45.322Z,99715.44
2023-02-02T16:56:26.921Z,99728.78
2023-02-02T16:58:58.101Z,99712.56
2023-02-02T17:01:42.273Z,99728.31
2023-02-02T17:04:30.732Z,99728.88
2023-02-02T17:07:06.412Z,99740.31
2023-02-02T17:09:40.202Z,99731.38
2023-02-02T17:12:30.592Z,99742.22
2023-02-02T17:15:21.561Z,99725.03
2023-02-02T17:17:49.222Z,99748.72
2023-02-02T17:20:20.009Z,99748.13
2023-02-02T17:22:50.314Z,99760.84
2023-02-02T17:25:23.926Z,99760.75
2023-02-02T17:27:51.165Z,99771.00
2023-02-02T17:30:19.153Z,99774.09
2023-02-02T17:32:46.093Z,99748.69
2023-02-02T17:35:19.328Z,99774.75
2023-02-02T17:37:46.107Z,99777.78
2023-02-02T17:40:17.177Z,99768.94
2023-02-02T17:42:45.699Z,99757.91
2023-02-02T17:45:25.043Z,99760.91
2023-02-02T17:47:51.892Z,99753.31
2023-02-02T17:50:18.714Z,99753.28
2023-02-02T17:52:46.261Z,99750.47
2023-02-02T17:55:20.143Z,99755.31
2023-02-02T17:57:47.747Z,99755.38
2023-02-02T18:00:15.834Z,99770.75
2023-02-02T18:02:43.253Z,99782.44
2023-02-02T18:05:11.125Z,99783.13
2023-02-02T18:07:37.963Z,99793.81
2023-02-02T18:10:06.151Z,99786.03
2023-02-02T18:12:35.071Z,99792.16
2023-02-02T18:15:03.006Z,99798.59
2023-02-02T18:17:30.336Z,99776.53
2023-02-02T18:19:58.129Z,99796.81
2023-02-02T18:22:25.663Z,99758.22
2023-02-02T18:24:52.488Z,99779.38
2023-02-02T18:27:20.487Z,99808.03
2023-02-02T18:29:48.402Z,99821.38
2023-02-02T18:32:17.062Z,99841.66
2023-02-02T18:34:45.017Z,99825.34
2023-02-02T18:37:11.715Z,99821.22
2023-02-02T18:39:38.490Z,99823.38
2023-02-02T18:42:05.332Z,99829.69
2023-02-02T18:44:34.608Z,99816.31
2023-02-02T18:47:01.345Z,99831.66
2023-02-02T18:49:28.652Z,99824.88
2023-02-02T18:51:55.316Z,99832.44
2023-02-02T18:57:17.591Z,99850.66
2023-02-02T18:59:44.362Z,99857.25
2023-02-02T19:02:14.796Z,99775.16
2023-02-02T19:05:04.663Z,99835.38
2023-02-02T19:07:50.278Z,99861.56
2023-02-02T19:10:18.029Z,99865.34
2023-02-02T19:12:54.907Z,99876.50
2023-02-02T19:15:22.433Z,99868.78
2023-02-02T19:17:52.855Z,99883.47
2023-02-02T19:20:28.045Z,99879.69
2023-02-02T19:23:08.344Z,99877.22
2023-02-02T19:25:35.131Z,99858.13
2023-02-02T19:28:16.703Z,99876.72
2023-02-02T19:30:45.337Z,99878.84
2023-02-02T19:33:13.594Z,99871.47
2023-02-02T19:35:40.621Z,99884.31
2023-02-02T19:38:13.748Z,99878.50
2023-02-02T19:40:42.120Z,99877.47
2023-02-02T19:43:28.733Z,99883.06
2023-02-02T19:45:59.140Z,99876.97
2023-02-02T19:48:27.963Z,99887.34
2023-02-02T19:50:56.017Z,99896.91
2023-02-02T19:53:35.337Z,99842.91
2023-02-02T19:56:02.621Z,99905.34
2023-02-02T19:58:37.163Z,99909.47
2023-02-02T20:01:15.266Z,99907.16
2023-02-02T20:03:43.388Z,99908.16
2023-02-02T20:06:32.217Z,99905.84
2023-02-02T20:09:01.080Z,99908.81
2023-02-02T20:11:36.837Z,99906.16
2023-02-02T20:14:18.579Z,99910.09
2023-02-02T20:17:00.863Z,99892.97
2023-02-02T20:19:31.762Z,99915.34
2023-02-02T20:21:58.446Z,99906.94
2023-02-02T20:24:35.129Z,99910.19
2023-02-02T20:27:13.874Z,99904.03
2023-02-02T20:29:43.542Z,99911.94
2023-02-02T20:32:21.837Z,99909.84
2023-02-02T20:34:50.602Z,99908.44
2023-02-02T20:37:26.924Z,99913.84
2023-02-02T20:40:21.783Z,99917.13
2023-02-02T20:42:49.162Z,99912.88
2023-02-02T20:45:17.771Z,99920.09
2023-02-02T20:47:45.250Z,99931.88
2023-02-02T20:50:14.787Z,99943.72
2023-02-02T20:52:42.029Z,99918.22
2023-02-02T20:55:09.951Z,99936.78
2023-02-02T20:57:38.678Z,99955.47
2023-02-02T21:00:08.613Z,99954.34
2023-02-02T21:02:35.345Z,99960.44
2023-02-02T21:05:02.124Z,99951.78
2023-02-02T21:07:29.122Z,99954.94
2023-02-02T21:09:55.896Z,99952.84
2023-02-02T21:12:25.675Z,99935.09
2023-02-02T21:14:55.690Z,99952.91
2023-02-02T21:17:22.812Z,99941.06
2023-02-02T21:19:49.779Z,99940.75
2023-02-02T21:22:16.585Z,99950.97
2023-02-02T21:24:43.287Z,99942.91
2023-02-02T21:27:10.257Z,99931.88
2023-02-02T21:29:37.138Z,99941.25
2023-02-02T21:32:04.209Z,99938.78
2023-02-02T21:34:31.784Z,99942.25
2023-02-02T21:36:59.571Z,99945.06
2023-02-02T21:39:32.115Z,99934.84
2023-02-02T21:42:07.576Z,99935.59
2023-02-02T21:44:40.027Z,99929.66
2023-02-02T21:47:27.216Z,99931.44
2023-02-02T21:49:56.041Z,99936.00
2023-02-02T21:52:23.374Z,99935.78
2023-02-02T21:54:50.241Z,99937.44
2023-02-02T21:57:23.798Z,99941.78
2023-02-02T21:59:55.515Z,99949.22
2023-02-02T22:02:45.154Z,99948.94
2023-02-02T22:05:23.204Z,99961.25
2023-02-02T22:07:50.901Z,99958.13
2023-02-02T22:10:20.585Z,99960.16
2023-02-02T22:12:47.307Z,99952.63
2023-02-02T22:15:21.945Z,99954.94
2023-02-02T22:17:49.300Z,99954.63
2023-02-02T22:20:15.884Z,99952.00
2023-02-02T22:22:46.720Z,99944.41
2023-02-02T22:25:16.487Z,99938.00
2023-02-02T22:27:48.728Z,99930.41
2023-02-02T22:30:37.352Z,99922.16
2023-02-02T22:33:09.036Z,99912.69
2023-02-02T22:35:36.043Z,99897.66
2023-02-02T22:38:03.675Z,99915.41
2023-02-02T22:40:30.787Z,99920.19
2023-02-02T22:42:59.703Z,99909.84
2023-02-02T22:45:27.040Z,99915.59
2023-02-02T22:47:54.311Z,99924.53
2023-02-02T22:50:24.528Z,99922.56
2023-02-02T22:52:51.974Z,99927.44
2023-02-02T22:55:19.285Z,99929.91
2023-02-02T22:57:46.127Z,99926.78
2023-02-02T23:00:14.968Z,99931.63
2023-02-02T23:02:42.673Z,99922.56
2023-02-02T23:05:12.372Z,99934.53
2023-02-02T23:07:39.758Z,99934.38
2023-02-02T23:10:07.739Z,99937.78
2023-02-02T23:12:34.901Z,99926.78
2023-02-02T23:15:01.663Z,99906.84
2023-02-02T23:17:28.375Z,99920.44
2023-02-02T23:19:55.040Z,99920.00
2023-02-02T23:22:21.776Z,99908.81
2023-02-02T23:24:48.510Z,99913.66
2023-02-02T23:27:15.234Z,99920.78
2023-02-02T23:29:41.931Z,99921.09
2023-02-02T23:32:08.725Z,99915.53
2023-02-02T23:34:35.416Z,99898.75
2023-02-02T23:37:02.121Z,99923.63
2023-02-02T23:39:28.759Z,99926.19
2023-02-02T23:41:55.509Z,99935.88
2023-02-02T23:44:22.210Z,99946.84
2023-02-02T23:46:50.197Z,99954.16
2023-02-02T23:49:17.264Z,99961.06
2023-02-02T23:51:44.217Z,99954.81
2023-02-02T23:54:12.766Z,99940.63
2023-02-02T23:56:41.080Z,99950.66
2023-02-02T23:59:08.558Z,99965.22
